createdAt,value
2019-03-20T00:00:56.393Z,30.75
2019-03-20T00:03:27.024Z,29.25
2019-03-20T00:05:58.918Z,29.42
2019-03-20T00:08:29.876Z,30.10
2019-03-20T00:11:00.734Z,28.17
2019-03-20T00:13:31.575Z,26.80
2019-03-20T00:16:02.443Z,27.30
2019-03-20T00:18:33.203Z,29.10
2019-03-20T00:21:03.851Z,27.93
2019-03-20T00:23:34.708Z,26.57
2019-03-20T00:26:05.341Z,26.27
2019-03-20T00:28:36.099Z,27.32
2019-03-20T00:31:06.765Z,26.00
2019-03-20T00:33:37.621Z,25.17
2019-03-20T00:36:08.375Z,25.25
2019-03-20T00:38:39.116Z,26.12
2019-03-20T00:41:09.776Z,26.68
2019-03-20T00:43:40.619Z,26.45
2019-03-20T00:46:11.388Z,27.20
2019-03-20T00:48:42.124Z,28.07
2019-03-20T00:51:12.997Z,30.32
2019-03-20T00:53:43.853Z,28.30
2019-03-20T00:56:14.609Z,26.97
2019-03-20T00:58:45.262Z,25.77
2019-03-20T01:01:16.524Z,26.73
2019-03-20T01:03:47.261Z,26.93
2019-03-20T01:06:19.055Z,26.48
2019-03-20T01:08:49.400Z,25.25
2019-03-20T01:11:20.241Z,26.33
2019-03-20T01:13:51.115Z,28.92
2019-03-20T01:16:21.869Z,27.70
2019-03-20T01:18:52.503Z,27.13
2019-03-20T01:21:23.372Z,26.87
2019-03-20T01:23:54.227Z,26.07
2019-03-20T01:26:24.863Z,26.12
2019-03-20T01:31:25.497Z,26.95
2019-03-20T01:33:56.120Z,27.30
2019-03-20T01:36:26.771Z,27.17
2019-03-20T01:38:57.633Z,27.70
2019-03-20T01:41:37.607Z,27.48
2019-03-20T01:44:00.449Z,25.57
2019-03-20T01:46:31.103Z,30.52
2019-03-20T01:49:01.971Z,27.27
2019-03-20T01:51:32.809Z,27.93
2019-03-20T01:54:03.583Z,28.55
2019-03-20T01:56:34.218Z,30.90
2019-03-20T01:59:04.968Z,28.15
2019-03-20T02:01:35.876Z,32.25
2019-03-20T02:04:06.596Z,37.03
2019-03-20T02:06:38.269Z,38.20
2019-03-20T02:09:08.720Z,40.88
2019-03-20T02:11:39.573Z,44.65
2019-03-20T02:14:10.432Z,39.03
2019-03-20T02:16:41.188Z,41.30
2019-03-20T02:19:11.836Z,39.90
2019-03-20T02:21:42.690Z,38.05
2019-03-20T02:24:13.549Z,37.78
2019-03-20T02:26:44.301Z,42.17
2019-03-20T02:29:14.837Z,42.75
2019-03-20T02:31:45.708Z,39.80
2019-03-20T02:34:16.465Z,40.60
2019-03-20T02:36:47.215Z,39.85
2019-03-20T02:39:17.868Z,40.60
2019-03-20T02:41:48.724Z,42.10
2019-03-20T02:44:19.477Z,41.10
2019-03-20T02:46:50.236Z,38.38
2019-03-20T02:49:21.087Z,39.80
2019-03-20T02:51:51.947Z,36.93
2019-03-20T02:54:22.681Z,36.25
2019-03-20T02:59:23.287Z,36.13
2019-03-20T03:01:56.493Z,35.68
2019-03-20T03:04:27.246Z,33.92
2019-03-20T03:06:59.025Z,32.40
2019-03-20T03:09:29.351Z,33.45
2019-03-20T03:12:00.225Z,32.33
2019-03-20T03:14:31.080Z,32.53
2019-03-20T03:17:01.815Z,31.50
2019-03-20T03:19:49.488Z,32.53
2019-03-20T03:22:20.302Z,35.48
2019-03-20T03:24:51.190Z,35.05
2019-03-20T03:27:21.927Z,35.38
2019-03-20T03:29:52.462Z,35.35
2019-03-20T03:32:23.337Z,35.68
2019-03-20T03:34:54.089Z,32.38
2019-03-20T03:37:24.857Z,37.03
2019-03-20T03:39:55.372Z,34.10
2019-03-20T03:42:26.250Z,37.35
2019-03-20T03:44:57.006Z,38.67
2019-03-20T03:47:27.738Z,37.95
2019-03-20T03:49:58.289Z,37.50
2019-03-20T03:52:29.179Z,34.25
2019-03-20T03:54:59.933Z,36.33
2019-03-20T03:57:30.573Z,38.67
2019-03-20T04:00:01.228Z,35.43
2019-03-20T04:02:31.985Z,37.58
2019-03-20T04:05:02.830Z,35.68
2019-03-20T04:07:34.618Z,34.45
2019-03-20T04:10:08.330Z,34.13
2019-03-20T04:12:39.078Z,36.60
2019-03-20T04:15:16.543Z,38.78
2019-03-20T04:17:47.037Z,41.68
2019-03-20T04:20:18.720Z,46.73
2019-03-20T04:22:49.155Z,46.20
2019-03-20T04:25:19.791Z,43.35
2019-03-20T04:30:20.599Z,43.87
2019-03-20T04:32:51.353Z,44.05
2019-03-20T04:35:22.194Z,42.38
2019-03-20T04:37:52.837Z,40.35
2019-03-20T04:40:23.589Z,38.88
2019-03-20T04:42:54.464Z,35.80
2019-03-20T04:45:25.321Z,35.73
2019-03-20T04:47:55.958Z,33.10
2019-03-20T04:52:56.556Z,30.57
2019-03-20T04:57:57.126Z,26.77
2019-03-20T05:00:27.902Z,30.95
2019-03-20T05:03:00.976Z,29.98
2019-03-20T05:05:30.836Z,26.57
2019-03-20T05:08:02.620Z,27.48
2019-03-20T05:10:33.370Z,33.30
2019-03-20T05:13:04.243Z,30.20
2019-03-20T05:18:04.615Z,27.37
2019-03-20T05:20:35.346Z,25.35
2019-03-20T05:23:08.384Z,25.92
2019-03-20T05:25:38.300Z,24.10
2019-03-20T05:28:09.159Z,21.82
2019-03-20T05:30:39.914Z,19.70
2019-03-20T05:33:10.563Z,19.23
2019-03-20T05:35:41.418Z,22.82
2019-03-20T05:38:12.171Z,21.33
2019-03-20T05:40:42.924Z,19.62
2019-03-20T05:43:13.577Z,19.32
2019-03-20T05:45:44.436Z,20.88
2019-03-20T05:48:15.070Z,17.73
2019-03-20T05:50:45.839Z,19.20
2019-03-20T05:53:16.474Z,19.57
2019-03-20T05:55:47.226Z,19.20
2019-03-20T05:58:17.561Z,20.15
2019-03-20T06:00:47.899Z,16.93
2019-03-20T06:03:18.263Z,17.37
2019-03-20T06:05:49.035Z,16.87
2019-03-20T06:08:20.794Z,19.45
2019-03-20T06:10:51.565Z,17.40
2019-03-20T06:13:22.307Z,18.80
2019-03-20T06:15:53.172Z,19.23
2019-03-20T06:18:23.909Z,19.50
2019-03-20T06:20:54.581Z,18.07
2019-03-20T06:23:25.440Z,17.35
2019-03-20T06:25:56.296Z,16.75
2019-03-20T06:28:27.046Z,18.07
2019-03-20T06:30:57.693Z,16.60
2019-03-20T06:33:28.551Z,17.85
2019-03-20T06:35:59.304Z,17.12
2019-03-20T06:38:30.060Z,17.90
2019-03-20T06:41:00.912Z,16.48
2019-03-20T06:43:31.772Z,19.30
2019-03-20T06:46:02.408Z,19.70
2019-03-20T06:51:03.112Z,15.68
2019-03-20T06:56:03.802Z,14.33
2019-03-20T07:01:16.251Z,14.93
2019-03-20T07:04:05.263Z,15.08
2019-03-20T07:06:51.306Z,15.28
2019-03-20T07:09:51.617Z,16.62
2019-03-20T07:12:22.253Z,16.05
2019-03-20T07:14:53.125Z,15.63
2019-03-20T07:17:23.779Z,16.95
2019-03-20T07:19:54.897Z,16.93
2019-03-20T07:22:25.594Z,16.73
2019-03-20T07:24:56.526Z,16.82
2019-03-20T07:27:26.998Z,15.32
2019-03-20T07:29:57.854Z,12.20
2019-03-20T07:32:30.057Z,13.62
2019-03-20T07:35:00.587Z,11.88
2019-03-20T07:37:33.648Z,11.83
2019-03-20T07:40:04.448Z,12.00
2019-03-20T07:42:35.307Z,11.63
2019-03-20T07:45:08.905Z,11.38
2019-03-20T07:47:39.247Z,12.93
2019-03-20T07:50:11.535Z,12.40
2019-03-20T07:52:42.189Z,13.55
2019-03-20T07:55:12.939Z,12.07
2019-03-20T07:57:43.818Z,14.30
2019-03-20T08:00:14.969Z,12.55
2019-03-20T08:02:45.716Z,14.65
2019-03-20T08:05:16.468Z,13.98
2019-03-20T08:07:47.340Z,13.20
2019-03-20T08:10:20.309Z,13.85
2019-03-20T08:12:50.792Z,14.13
2019-03-20T08:15:23.818Z,15.53
2019-03-20T08:17:54.447Z,15.45
2019-03-20T08:20:31.645Z,14.87
2019-03-20T08:23:02.500Z,17.20
2019-03-20T08:25:33.271Z,17.50
2019-03-20T08:28:04.009Z,19.10
2019-03-20T08:33:04.504Z,18.40
2019-03-20T08:35:35.145Z,21.33
2019-03-20T08:38:17.422Z,20.45
2019-03-20T08:40:40.027Z,19.85
2019-03-20T08:43:10.889Z,20.45
2019-03-20T08:45:41.659Z,21.68
2019-03-20T08:48:12.491Z,22.42
2019-03-20T08:50:43.255Z,18.20
2019-03-20T08:53:13.900Z,18.02
2019-03-20T08:55:44.754Z,18.35
2019-03-20T08:58:15.511Z,18.48
2019-03-20T09:00:46.265Z,17.75
2019-03-20T09:03:17.120Z,18.90
2019-03-20T09:05:48.080Z,17.27
2019-03-20T09:08:28.817Z,17.48
2019-03-20T09:10:52.244Z,17.12
2019-03-20T09:13:23.000Z,18.12
2019-03-20T09:15:53.757Z,16.35
2019-03-20T09:20:54.339Z,15.18
2019-03-20T09:23:24.991Z,16.25
2019-03-20T09:25:55.850Z,17.20
2019-03-20T09:28:26.601Z,16.87
2019-03-20T09:30:57.354Z,17.75
2019-03-20T09:33:28.211Z,17.42
2019-03-20T09:35:58.968Z,16.27
2019-03-20T09:38:29.620Z,16.97
2019-03-20T09:41:00.354Z,16.32
2019-03-20T09:43:30.797Z,18.25
2019-03-20T09:46:01.450Z,16.37
2019-03-20T09:48:32.105Z,16.10
2019-03-20T09:53:32.691Z,15.70
2019-03-20T09:56:03.459Z,15.85
2019-03-20T09:58:34.320Z,16.12
2019-03-20T10:01:05.059Z,15.85
2019-03-20T10:03:35.706Z,15.38
2019-03-20T10:08:36.297Z,28.42
2019-03-20T10:11:08.088Z,18.70
2019-03-20T10:13:38.723Z,20.82
2019-03-20T10:16:09.493Z,22.07
2019-03-20T10:18:40.350Z,16.80
2019-03-20T10:21:10.984Z,17.42
2019-03-20T10:23:41.756Z,15.38
2019-03-20T10:26:12.595Z,17.07
2019-03-20T10:28:43.261Z,15.75
2019-03-20T10:31:14.018Z,14.07
2019-03-20T10:33:44.771Z,15.60
2019-03-20T10:36:17.529Z,15.00
2019-03-20T10:38:48.795Z,15.65
2019-03-20T10:41:19.469Z,15.23
2019-03-20T10:43:52.259Z,15.08
2019-03-20T10:46:22.321Z,14.03
2019-03-20T10:48:52.956Z,15.10
2019-03-20T10:53:53.445Z,15.95
2019-03-20T10:56:24.112Z,16.50
2019-03-20T10:58:54.866Z,15.50
2019-03-20T11:01:25.522Z,14.65
2019-03-20T11:03:56.375Z,13.80
2019-03-20T11:06:27.227Z,14.95
2019-03-20T11:08:57.686Z,14.68
2019-03-20T11:11:29.251Z,15.88
2019-03-20T11:14:00.004Z,15.53
2019-03-20T11:16:30.863Z,17.55
2019-03-20T11:19:01.720Z,16.73
2019-03-20T11:21:32.570Z,14.28
2019-03-20T11:24:03.203Z,16.27
2019-03-20T11:26:33.866Z,15.03
2019-03-20T11:29:04.529Z,15.53
2019-03-20T11:31:35.381Z,18.57
2019-03-20T11:34:06.013Z,22.07
2019-03-20T11:36:36.791Z,27.60
2019-03-20T11:39:09.250Z,24.52
2019-03-20T11:41:39.604Z,25.85
2019-03-20T11:44:10.481Z,16.70
2019-03-20T11:46:41.232Z,16.05
2019-03-20T11:49:11.867Z,17.37
2019-03-20T11:51:45.607Z,21.02
2019-03-20T11:54:16.360Z,32.08
2019-03-20T11:56:47.012Z,39.13
2019-03-20T11:59:17.874Z,28.77
2019-03-20T12:01:48.500Z,19.48
2019-03-20T12:04:19.276Z,23.45
2019-03-20T12:06:49.936Z,23.38
2019-03-20T12:09:20.779Z,23.60
2019-03-20T12:11:51.637Z,17.57
2019-03-20T12:14:22.492Z,17.15
2019-03-20T12:16:53.144Z,16.55
2019-03-20T12:19:24.002Z,23.92
2019-03-20T12:21:55.043Z,16.07
2019-03-20T12:24:25.802Z,16.27
2019-03-20T12:26:56.676Z,14.83
2019-03-20T12:29:27.526Z,15.00
2019-03-20T12:31:58.381Z,16.05
2019-03-20T12:34:29.135Z,17.25
2019-03-20T12:36:59.788Z,16.65
2019-03-20T12:39:30.524Z,17.23
2019-03-20T12:42:01.277Z,18.55
2019-03-20T12:44:32.053Z,18.52
2019-03-20T12:47:02.701Z,18.82
2019-03-20T12:49:33.559Z,15.28
2019-03-20T12:52:04.417Z,14.58
2019-03-20T12:54:35.168Z,19.35
2019-03-20T12:57:05.817Z,15.43
2019-03-20T12:59:36.674Z,16.12
2019-03-20T13:02:08.299Z,16.73
2019-03-20T13:04:38.880Z,16.27
2019-03-20T13:07:09.652Z,17.02
2019-03-20T13:09:40.409Z,18.17
2019-03-20T13:12:12.062Z,18.90
2019-03-20T13:14:42.525Z,18.48
2019-03-20T13:17:13.382Z,18.90
2019-03-20T13:19:44.120Z,17.17
2019-03-20T13:22:14.993Z,18.73
2019-03-20T13:24:45.749Z,20.77
2019-03-20T13:27:16.404Z,19.00
2019-03-20T13:29:47.237Z,19.95
2019-03-20T13:32:18.020Z,21.45
2019-03-20T13:34:48.762Z,24.63
2019-03-20T13:37:19.401Z,24.05
2019-03-20T13:39:50.273Z,24.37
2019-03-20T13:42:21.023Z,23.30
2019-03-20T13:44:51.881Z,24.95
2019-03-20T13:47:22.737Z,23.80
2019-03-20T13:49:53.593Z,22.13
2019-03-20T13:52:24.225Z,22.10
2019-03-20T13:54:54.897Z,27.40
2019-03-20T13:57:25.753Z,24.67
2019-03-20T13:59:56.507Z,22.30
2019-03-20T14:02:27.260Z,25.32
2019-03-20T14:04:57.913Z,24.45
2019-03-20T14:07:28.766Z,24.67
2019-03-20T14:09:59.522Z,23.30
2019-03-20T14:12:33.416Z,23.75
2019-03-20T14:15:03.261Z,25.10
2019-03-20T14:17:34.239Z,25.23
2019-03-20T14:20:08.061Z,24.82
2019-03-20T14:22:38.799Z,23.50
2019-03-20T14:25:11.103Z,22.95
2019-03-20T14:27:41.427Z,22.02
2019-03-20T14:30:17.784Z,23.57
2019-03-20T14:32:48.155Z,24.55
2019-03-20T14:35:18.924Z,25.20
2019-03-20T14:37:49.719Z,26.15
2019-03-20T14:40:23.490Z,32.10
2019-03-20T14:42:54.016Z,30.92
2019-03-20T14:45:24.808Z,48.02
2019-03-20T14:47:56.158Z,67.22
2019-03-20T14:50:31.309Z,114.03
2019-03-20T14:53:01.673Z,66.90
2019-03-20T18:51:56.797Z,27.02
2019-03-20T18:54:27.568Z,26.70
2019-03-20T18:56:58.325Z,25.75
2019-03-20T18:59:28.973Z,25.45
2019-03-20T19:01:59.828Z,25.23
2019-03-20T19:04:30.590Z,23.92
2019-03-20T19:07:01.338Z,26.27
2019-03-20T19:09:32.307Z,25.00
2019-03-20T19:12:08.522Z,24.90
2019-03-20T19:14:35.234Z,24.82
2019-03-20T19:17:05.889Z,26.80
2019-03-20T19:19:36.745Z,26.50
2019-03-20T19:22:07.814Z,28.45
2019-03-20T19:24:38.438Z,28.75
2019-03-20T19:29:38.923Z,31.47
2019-03-20T19:32:09.694Z,28.75
2019-03-20T19:34:40.430Z,24.80
2019-03-20T19:37:11.306Z,24.67
2019-03-20T19:39:44.818Z,23.00
2019-03-20T19:42:20.223Z,22.25
2019-03-20T19:44:49.189Z,21.75
2019-03-20T19:47:20.047Z,22.50
2019-03-20T19:49:50.799Z,23.73
2019-03-20T19:52:21.657Z,22.75
2019-03-20T19:54:53.431Z,22.32
2019-03-20T19:57:23.881Z,20.35
2019-03-20T19:59:54.735Z,20.72
2019-03-20T20:02:25.592Z,18.92
2019-03-20T20:04:56.229Z,19.62
2019-03-20T20:09:56.831Z,16.73
2019-03-20T20:12:31.390Z,17.42
2019-03-20T20:14:59.770Z,17.55
2019-03-20T20:17:30.609Z,18.45
2019-03-20T20:20:01.383Z,18.60
2019-03-20T20:22:32.136Z,18.02
2019-03-20T20:25:02.992Z,19.57
2019-03-20T20:27:33.748Z,18.95
2019-03-20T20:30:07.057Z,16.48
2019-03-20T20:32:37.810Z,16.70
2019-03-20T20:35:10.098Z,17.25
2019-03-20T20:37:40.549Z,15.20
2019-03-20T20:40:29.093Z,13.98
2019-03-20T20:42:59.949Z,11.85
2019-03-20T20:45:30.601Z,10.25
2019-03-20T20:48:01.462Z,9.93
2019-03-20T20:50:32.222Z,8.58
2019-03-20T20:53:02.998Z,8.35
2019-03-20T20:55:33.926Z,8.28
2019-03-20T20:58:04.781Z,8.03
2019-03-20T21:00:35.553Z,8.85
2019-03-20T21:03:06.168Z,9.00
2019-03-20T21:05:37.450Z,8.70
2019-03-20T21:08:08.185Z,9.48
2019-03-20T21:10:38.840Z,8.95
2019-03-20T21:13:09.711Z,9.58
2019-03-20T21:15:45.479Z,8.68
2019-03-20T21:18:35.134Z,8.95
2019-03-20T21:21:05.908Z,8.95
2019-03-20T21:23:59.260Z,9.58
2019-03-20T21:26:35.679Z,10.38
2019-03-20T21:29:35.340Z,9.43
2019-03-20T21:32:15.195Z,8.65
2019-03-20T21:35:22.566Z,8.43
2019-03-20T21:38:10.805Z,9.68
2019-03-20T21:41:02.526Z,9.40
2019-03-20T21:44:00.572Z,9.23
2019-03-20T21:46:49.528Z,9.43
2019-03-20T21:49:20.206Z,8.63
2019-03-20T21:51:50.833Z,9.18
2019-03-20T21:54:50.632Z,9.43
2019-03-20T21:57:28.883Z,11.13
2019-03-20T22:00:14.438Z,10.72
2019-03-20T22:02:45.499Z,12.43
2019-03-20T22:05:53.812Z,12.65
2019-03-20T22:08:24.561Z,12.73
2019-03-20T22:11:17.609Z,10.90
2019-03-20T22:13:51.429Z,10.90
2019-03-20T22:16:43.439Z,10.90
2019-03-20T22:19:50.503Z,10.72
2019-03-20T22:22:42.545Z,12.23
2019-03-20T22:25:19.017Z,11.75
2019-03-20T22:27:55.591Z,12.75
2019-03-20T22:30:26.261Z,11.75
2019-03-20T22:33:05.797Z,12.88
2019-03-20T22:35:39.722Z,12.93
2019-03-20T22:38:13.561Z,13.18
2019-03-20T22:41:05.487Z,14.25
2019-03-20T22:43:40.842Z,14.83
2019-03-20T22:46:31.537Z,16.40
2019-03-20T22:52:01.375Z,15.50
2019-03-20T22:54:43.381Z,16.52
2019-03-20T22:57:44.509Z,16.27
2019-03-20T23:00:18.564Z,17.20
2019-03-20T23:02:52.040Z,19.05
2019-03-20T23:05:24.337Z,18.12
2019-03-20T23:07:55.097Z,17.07
2019-03-20T23:10:25.744Z,18.35
2019-03-20T23:12:56.604Z,17.92
2019-03-20T23:15:27.235Z,18.25
2019-03-20T23:17:58.008Z,17.75
2019-03-20T23:20:29.253Z,16.85
2019-03-20T23:23:00.033Z,17.42
2019-03-20T23:25:30.865Z,17.55
2019-03-20T23:28:01.742Z,17.90
2019-03-20T23:30:34.214Z,17.57
2019-03-20T23:33:04.778Z,17.50
2019-03-20T23:38:05.162Z,15.75
2019-03-20T23:40:36.208Z,16.80
2019-03-20T23:43:10.289Z,16.07
2019-03-20T23:45:40.986Z,17.05
2019-03-20T23:48:24.851Z,17.12
2019-03-20T23:51:07.570Z,16.23
2019-03-20T23:53:39.119Z,16.87
2019-03-20T23:56:09.898Z,17.32
2019-03-20T23:58:41.551Z,17.05
